createdAt,value
2023-05-12T00:02:23.960Z,36.50
2023-05-12T00:04:50.876Z,36.70
2023-05-12T00:07:19.214Z,36.42
2023-05-12T00:09:45.937Z,36.43
2023-05-12T00:12:13.058Z,36.28
2023-05-12T00:14:39.759Z,36.27
2023-05-12T00:17:06.773Z,36.56
2023-05-12T00:19:34.666Z,36.27
2023-05-12T00:22:03.119Z,36.36
2023-05-12T00:24:31.635Z,36.33
2023-05-12T00:26:58.673Z,36.30
2023-05-12T00:29:25.418Z,36.58
2023-05-12T00:31:53.258Z,36.57
2023-05-12T00:34:20.688Z,36.39
2023-05-12T00:36:47.338Z,36.48
2023-05-12T00:39:14.388Z,36.38
2023-05-12T00:41:41.464Z,36.68
2023-05-12T00:44:08.384Z,36.51
2023-05-12T00:46:35.374Z,36.58
2023-05-12T00:49:02.060Z,36.70
2023-05-12T00:51:28.789Z,36.60
2023-05-12T00:53:57.701Z,36.57
2023-05-12T00:56:24.431Z,36.63
2023-05-12T00:58:51.789Z,36.73
2023-05-12T01:01:19.301Z,36.84
2023-05-12T01:03:49.578Z,36.70
2023-05-12T01:06:43.510Z,36.54
2023-05-12T01:09:11.628Z,36.95
2023-05-12T01:11:39.017Z,36.55
2023-05-12T01:14:06.420Z,36.54
2023-05-12T01:16:41.128Z,36.51
2023-05-12T01:19:10.465Z,36.74
2023-05-12T01:21:37.718Z,36.46
2023-05-12T01:24:09.614Z,36.70
2023-05-12T01:26:39.148Z,36.84
2023-05-12T01:29:06.276Z,36.82
2023-05-12T01:31:34.336Z,36.62
2023-05-12T01:34:01.535Z,36.72
2023-05-12T01:36:29.965Z,36.62
2023-05-12T01:38:57.220Z,36.88
2023-05-12T01:41:23.977Z,36.62
2023-05-12T01:43:51.326Z,36.58
2023-05-12T01:46:18.436Z,36.94
2023-05-12T01:48:45.958Z,36.81
2023-05-12T01:51:13.771Z,36.86
2023-05-12T01:53:41.195Z,36.99
2023-05-12T01:56:07.917Z,36.86
2023-05-12T01:58:35.914Z,37.07
2023-05-12T02:01:03.958Z,36.56
2023-05-12T02:03:32.012Z,37.01
2023-05-12T02:05:59.573Z,36.63
2023-05-12T02:08:26.453Z,37.03
2023-05-12T02:11:07.289Z,36.65
2023-05-12T02:13:34.993Z,36.97
2023-05-12T02:16:03.285Z,36.47
2023-05-12T02:18:30.472Z,36.61
2023-05-12T02:20:59.815Z,36.72
2023-05-12T02:23:27.595Z,36.93
2023-05-12T02:25:56.737Z,36.97
2023-05-12T02:28:23.436Z,36.63
2023-05-12T02:30:50.912Z,36.86
2023-05-12T02:33:20.586Z,36.58
2023-05-12T02:35:48.211Z,36.53
2023-05-12T02:38:17.308Z,36.69
2023-05-12T02:40:48.190Z,36.78
2023-05-12T02:43:16.546Z,36.90
2023-05-12T02:45:43.427Z,36.93
2023-05-12T02:48:11.746Z,37.10
2023-05-12T02:50:38.549Z,37.05
2023-05-12T02:53:06.413Z,36.73
2023-05-12T02:55:34.058Z,36.99
2023-05-12T02:58:00.774Z,36.95
2023-05-12T03:00:30.622Z,37.08
2023-05-12T03:02:58.027Z,37.07
2023-05-12T03:05:25.041Z,37.13
2023-05-12T03:07:52.224Z,36.95
2023-05-12T03:10:19.288Z,36.98
2023-05-12T03:12:47.631Z,37.01
2023-05-12T03:15:16.008Z,36.88
2023-05-12T03:17:44.148Z,36.92
2023-05-12T03:20:13.990Z,36.86
2023-05-12T03:22:41.556Z,36.80
2023-05-12T03:25:10.264Z,37.05
2023-05-12T03:27:37.980Z,36.90
2023-05-12T03:30:05.907Z,36.91
2023-05-12T03:32:36.265Z,37.26
2023-05-12T03:35:03.180Z,37.10
2023-05-12T03:37:30.727Z,37.09
2023-05-12T03:39:58.600Z,36.85
2023-05-12T03:42:25.873Z,36.84
2023-05-12T03:44:55.620Z,36.80
2023-05-12T03:47:22.517Z,37.11
2023-05-12T03:49:49.581Z,37.03
2023-05-12T03:52:17.301Z,36.94
2023-05-12T03:54:47.461Z,36.78
2023-05-12T03:57:15.593Z,37.03
2023-05-12T03:59:42.500Z,36.98
2023-05-12T04:02:12.132Z,36.91
2023-05-12T04:04:39.881Z,36.87
2023-05-12T04:07:09.778Z,36.96
2023-05-12T04:09:36.884Z,36.93
2023-05-12T04:12:04.709Z,36.92
2023-05-12T04:14:42.089Z,37.16
2023-05-12T04:17:09.782Z,36.84
2023-05-12T04:19:36.521Z,37.00
2023-05-12T04:22:03.823Z,37.00
2023-05-12T04:24:33.048Z,36.85
2023-05-12T04:27:00.030Z,37.00
2023-05-12T04:29:30.371Z,37.15
2023-05-12T04:32:00.544Z,37.13
2023-05-12T04:34:28.117Z,37.16
2023-05-12T04:36:56.449Z,37.36
2023-05-12T04:39:23.886Z,37.28
2023-05-12T04:41:51.044Z,37.08
2023-05-12T04:44:19.707Z,37.23
2023-05-12T04:46:47.348Z,37.62
2023-05-12T04:49:17.715Z,37.35
2023-05-12T04:51:45.383Z,37.80
2023-05-12T04:54:13.576Z,37.48
2023-05-12T04:56:40.737Z,37.31
2023-05-12T04:59:08.042Z,37.45
2023-05-12T05:01:35.828Z,37.26
2023-05-12T05:04:02.761Z,37.25
2023-05-12T05:06:30.827Z,37.38
2023-05-12T05:08:59.223Z,37.17
2023-05-12T05:11:26.156Z,37.29
2023-05-12T05:13:53.425Z,37.06
2023-05-12T05:16:21.070Z,37.15
2023-05-12T05:18:49.415Z,37.14
2023-05-12T05:21:16.902Z,37.29
2023-05-12T05:23:45.215Z,37.07
2023-05-12T05:26:12.968Z,37.14
2023-05-12T05:28:40.142Z,37.17
2023-05-12T05:31:08.335Z,36.99
2023-05-12T05:33:35.466Z,37.06
2023-05-12T05:36:04.023Z,37.17
2023-05-12T05:38:33.113Z,37.22
2023-05-12T05:41:00.212Z,37.29
2023-05-12T05:43:27.791Z,37.36
2023-05-12T05:45:56.003Z,37.35
2023-05-12T05:48:26.503Z,37.27
2023-05-12T05:50:54.528Z,37.11
2023-05-12T05:53:27.757Z,37.26
2023-05-12T05:55:55.472Z,37.14
2023-05-12T05:58:25.458Z,37.26
2023-05-12T06:00:56.593Z,37.49
2023-05-12T06:03:24.260Z,37.29
2023-05-12T06:05:51.197Z,37.49
2023-05-12T06:08:17.967Z,37.61
2023-05-12T06:10:45.322Z,37.28
2023-05-12T06:13:12.825Z,37.41
2023-05-12T06:15:40.466Z,37.26
2023-05-12T06:18:07.556Z,37.55
2023-05-12T06:20:37.096Z,37.27
2023-05-12T06:23:04.788Z,37.33
2023-05-12T06:25:33.653Z,37.48
2023-05-12T06:28:01.148Z,37.63
2023-05-12T06:30:30.042Z,37.37
2023-05-12T06:32:57.751Z,37.24
2023-05-12T06:35:25.491Z,37.53
2023-05-12T06:37:52.558Z,37.67
2023-05-12T06:40:19.799Z,37.32
2023-05-12T06:42:47.206Z,37.35
2023-05-12T06:45:19.740Z,37.32
2023-05-12T06:47:49.391Z,37.31
2023-05-12T06:50:17.315Z,37.38
2023-05-12T06:52:45.369Z,37.13
2023-05-12T06:55:12.526Z,37.53
2023-05-12T06:57:41.469Z,37.20
2023-05-12T07:00:15.665Z,37.80
2023-05-12T07:02:42.480Z,37.66
2023-05-12T07:05:11.664Z,37.39
2023-05-12T07:07:38.585Z,37.75
2023-05-12T07:10:07.615Z,37.43
2023-05-12T07:12:35.907Z,37.45
2023-05-12T07:15:03.348Z,37.37
2023-05-12T07:17:31.457Z,37.41
2023-05-12T07:20:01.339Z,37.41
2023-05-12T07:22:29.938Z,37.49
2023-05-12T07:24:57.326Z,37.34
2023-05-12T07:27:24.339Z,37.17
2023-05-12T07:29:51.574Z,37.04
2023-05-12T07:32:18.296Z,37.25
2023-05-12T07:34:45.134Z,37.29
2023-05-12T07:37:11.924Z,37.32
2023-05-12T07:39:39.821Z,37.23
2023-05-12T07:42:07.379Z,37.27
2023-05-12T07:44:36.497Z,37.05
2023-05-12T07:47:04.933Z,37.17
2023-05-12T07:49:32.136Z,37.21
2023-05-12T07:51:59.085Z,37.25
2023-05-12T07:54:27.213Z,37.44
2023-05-12T07:56:54.477Z,37.10
2023-05-12T07:59:21.527Z,37.08
2023-05-12T08:01:49.541Z,37.25
2023-05-12T08:04:17.531Z,37.11
2023-05-12T08:06:45.761Z,36.89
2023-05-12T08:09:12.808Z,36.92
2023-05-12T08:11:39.739Z,37.09
2023-05-12T08:14:07.095Z,37.04
2023-05-12T08:16:34.165Z,37.30
2023-05-12T08:19:01.390Z,37.14
2023-05-12T08:21:28.925Z,37.02
2023-05-12T08:23:59.716Z,37.02
2023-05-12T08:26:27.761Z,37.36
2023-05-12T08:28:54.775Z,37.34
2023-05-12T08:31:21.571Z,37.19
2023-05-12T08:33:51.942Z,37.01
2023-05-12T08:36:26.804Z,37.16
2023-05-12T08:38:56.506Z,36.93
2023-05-12T08:41:35.806Z,37.03
2023-05-12T08:44:02.912Z,37.14
2023-05-12T08:46:31.605Z,37.15
2023-05-12T08:48:59.176Z,36.78
2023-05-12T08:51:26.405Z,36.87
2023-05-12T08:53:53.619Z,37.07
2023-05-12T08:58:50.930Z,37.12
2023-05-12T09:01:18.427Z,37.23
2023-05-12T09:03:46.225Z,36.83
2023-05-12T09:06:13.624Z,37.17
2023-05-12T09:08:40.758Z,37.08
2023-05-12T09:11:07.937Z,37.08
2023-05-12T09:13:53.993Z,36.73
2023-05-12T09:16:25.163Z,36.70
2023-05-12T09:18:56.999Z,36.54
2023-05-12T09:21:24.198Z,36.65
2023-05-12T09:23:58.743Z,36.85
2023-05-12T09:26:27.597Z,36.59
2023-05-12T09:29:09.952Z,36.56
2023-05-12T09:31:39.410Z,36.63
2023-05-12T09:34:09.561Z,36.60
2023-05-12T09:36:37.232Z,36.72
2023-05-12T09:39:07.036Z,36.90
2023-05-12T09:41:36.954Z,36.86
2023-05-12T09:44:07.375Z,36.87
2023-05-12T09:46:34.780Z,37.08
2023-05-12T09:49:03.760Z,36.80
2023-05-12T09:51:33.454Z,36.81
2023-05-12T09:54:01.287Z,36.84
2023-05-12T09:56:29.941Z,36.81
2023-05-12T09:59:00.103Z,36.56
2023-05-12T10:01:28.772Z,36.82
2023-05-12T10:03:57.353Z,36.73
2023-05-12T10:06:34.221Z,36.90
2023-05-12T10:09:20.154Z,36.78
2023-05-12T10:11:50.635Z,36.93
2023-05-12T10:14:19.326Z,36.90
2023-05-12T10:16:47.458Z,36.74
2023-05-12T10:19:15.004Z,36.76
2023-05-12T10:21:43.487Z,36.71
2023-05-12T10:24:10.453Z,36.90
2023-05-12T10:26:37.574Z,38.31
2023-05-12T10:29:04.504Z,38.30
2023-05-12T10:31:31.633Z,39.14
2023-05-12T10:34:01.007Z,37.96
2023-05-12T10:36:27.721Z,37.59
2023-05-12T10:38:55.230Z,37.35
2023-05-12T10:41:32.981Z,37.54
2023-05-12T10:44:00.071Z,37.27
2023-05-12T10:46:29.299Z,37.78
2023-05-12T10:49:03.423Z,37.88
2023-05-12T10:51:33.172Z,37.76
2023-05-12T10:54:03.904Z,38.49
2023-05-12T10:56:41.069Z,38.96
2023-05-12T10:59:19.697Z,38.32
2023-05-12T11:02:01.785Z,37.98
2023-05-12T11:04:48.301Z,38.15
2023-05-12T11:07:16.684Z,37.89
2023-05-12T11:09:57.456Z,38.26
2023-05-12T11:12:33.317Z,37.76
2023-05-12T11:15:04.109Z,37.64
2023-05-12T11:17:31.015Z,37.82
2023-05-12T11:19:58.264Z,37.79
2023-05-12T11:22:25.174Z,37.35
2023-05-12T11:24:53.243Z,37.41
2023-05-12T11:27:22.245Z,37.58
2023-05-12T11:29:59.366Z,37.13
2023-05-12T11:32:26.918Z,36.98
2023-05-12T11:34:53.793Z,36.59
2023-05-12T11:37:22.914Z,36.61
2023-05-12T11:39:49.766Z,36.60
2023-05-12T11:42:19.767Z,36.49
2023-05-12T11:44:50.686Z,36.65
2023-05-12T11:47:19.089Z,36.59
2023-05-12T11:49:53.322Z,37.05
2023-05-12T11:52:20.867Z,36.72
2023-05-12T11:54:57.046Z,37.00
2023-05-12T11:57:32.912Z,36.88
2023-05-12T12:00:01.799Z,37.14
2023-05-12T12:02:33.770Z,36.87
2023-05-12T12:05:00.965Z,36.63
2023-05-12T12:07:34.413Z,36.82
2023-05-12T12:10:17.848Z,36.90
2023-05-12T12:12:45.011Z,36.75
2023-05-12T12:15:12.383Z,36.70
2023-05-12T12:17:40.682Z,36.70
2023-05-12T12:20:10.213Z,37.27
2023-05-12T12:22:37.067Z,37.20
2023-05-12T12:25:06.463Z,37.43
2023-05-12T12:27:33.907Z,37.24
2023-05-12T12:30:01.314Z,37.51
2023-05-12T12:32:28.152Z,37.44
2023-05-12T12:34:59.896Z,37.32
2023-05-12T12:37:27.361Z,37.33
2023-05-12T12:39:55.773Z,37.47
2023-05-12T12:42:23.351Z,37.46
2023-05-12T12:44:51.660Z,37.18
2023-05-12T12:47:19.042Z,37.48
2023-05-12T12:49:46.364Z,37.50
2023-05-12T12:52:13.153Z,37.17
2023-05-12T12:54:40.592Z,37.29
2023-05-12T12:57:08.530Z,37.49
2023-05-12T12:59:35.850Z,37.55
2023-05-12T13:02:02.946Z,37.51
2023-05-12T13:04:32.336Z,37.69
2023-05-12T13:06:59.673Z,37.71
2023-05-12T13:09:27.256Z,37.54
2023-05-12T13:11:54.053Z,37.82
2023-05-12T13:14:21.704Z,37.71
2023-05-12T13:16:49.146Z,37.79
2023-05-12T13:19:16.228Z,37.40
2023-05-12T13:21:43.222Z,37.64
2023-05-12T13:24:10.730Z,37.62
2023-05-12T13:26:37.482Z,38.06
2023-05-12T13:29:04.437Z,38.04
2023-05-12T13:31:31.823Z,38.12
2023-05-12T13:33:59.623Z,38.19
2023-05-12T13:36:27.296Z,38.28
2023-05-12T13:38:56.369Z,38.35
2023-05-12T13:41:23.550Z,38.18
2023-05-12T13:43:51.216Z,38.28
2023-05-12T13:46:18.032Z,38.21
2023-05-12T13:48:47.124Z,38.26
2023-05-12T13:51:14.558Z,37.97
2023-05-12T13:53:44.404Z,38.15
2023-05-12T13:56:19.210Z,38.32
2023-05-12T13:58:46.578Z,38.36
2023-05-12T14:01:14.173Z,38.22
2023-05-12T14:03:45.798Z,38.20
2023-05-12T14:06:13.043Z,38.60
2023-05-12T14:08:44.404Z,38.55
2023-05-12T14:11:12.348Z,38.45
2023-05-12T14:13:39.437Z,38.55
2023-05-12T14:16:06.857Z,38.54
2023-05-12T14:18:35.407Z,38.75
2023-05-12T14:21:02.241Z,38.78
2023-05-12T14:23:29.248Z,38.54
2023-05-12T14:25:59.307Z,38.68
2023-05-12T14:28:26.421Z,38.64
2023-05-12T14:30:53.756Z,38.39
2023-05-12T14:33:20.906Z,38.29
2023-05-12T14:35:55.618Z,38.78
2023-05-12T14:38:31.332Z,38.43
2023-05-12T14:40:58.807Z,38.61
2023-05-12T14:43:26.259Z,38.40
2023-05-12T14:45:55.884Z,38.45
2023-05-12T14:48:23.990Z,38.59
2023-05-12T14:50:54.670Z,38.88
2023-05-12T14:53:21.831Z,38.61
2023-05-12T14:55:53.416Z,38.65
2023-05-12T14:58:22.036Z,38.57
2023-05-12T15:00:51.055Z,38.56
2023-05-12T15:03:19.492Z,38.63
2023-05-12T15:06:04.705Z,38.70
2023-05-12T15:08:32.338Z,38.52
2023-05-12T15:10:59.708Z,38.53
2023-05-12T15:13:26.806Z,38.78
2023-05-12T15:15:55.304Z,38.53
2023-05-12T15:18:24.901Z,38.44
2023-05-12T15:20:52.598Z,38.48
2023-05-12T15:23:20.062Z,38.55
2023-05-12T15:25:47.363Z,38.63
2023-05-12T15:28:15.625Z,38.75
2023-05-12T15:30:46.508Z,38.66
2023-05-12T15:33:13.839Z,38.37
2023-05-12T15:35:41.827Z,38.40
2023-05-12T15:38:09.251Z,38.53
2023-05-12T15:40:36.640Z,38.06
2023-05-12T15:43:07.806Z,38.16
2023-05-12T15:45:43.452Z,38.19
2023-05-12T15:48:10.999Z,38.19
2023-05-12T15:50:38.454Z,38.21
2023-05-12T15:53:08.280Z,38.07
2023-05-12T15:55:35.151Z,38.06
2023-05-12T15:58:03.637Z,38.05
2023-05-12T16:00:30.678Z,38.14
2023-05-12T16:02:58.059Z,37.95
2023-05-12T16:05:25.061Z,37.63
2023-05-12T16:07:54.587Z,37.96
2023-05-12T16:10:22.402Z,38.09
2023-05-12T16:12:49.520Z,37.99
2023-05-12T16:15:16.232Z,37.86
2023-05-12T16:17:43.197Z,37.88
2023-05-12T16:20:10.741Z,37.96
2023-05-12T16:22:37.710Z,37.99
2023-05-12T16:25:09.632Z,38.11
2023-05-12T16:27:36.891Z,38.08
2023-05-12T16:30:03.845Z,38.11
2023-05-12T16:32:31.919Z,37.78
2023-05-12T16:34:59.469Z,37.86
2023-05-12T16:37:28.414Z,37.80
2023-05-12T16:39:55.938Z,37.61
2023-05-12T16:42:23.262Z,37.79
2023-05-12T16:44:50.235Z,37.94
2023-05-12T16:47:17.900Z,37.89
2023-05-12T16:49:45.304Z,37.97
2023-05-12T16:52:12.982Z,37.67
2023-05-12T16:54:39.989Z,37.87
2023-05-12T16:57:06.667Z,37.94
2023-05-12T16:59:33.597Z,37.87
2023-05-12T17:02:01.416Z,37.94
2023-05-12T17:04:28.799Z,37.72
2023-05-12T17:06:55.942Z,37.97
2023-05-12T17:09:23.229Z,37.83
2023-05-12T17:11:50.541Z,37.86
2023-05-12T17:14:19.467Z,38.11
2023-05-12T17:16:46.910Z,38.08
2023-05-12T17:19:14.450Z,38.32
2023-05-12T17:21:42.352Z,38.26
2023-05-12T17:24:09.631Z,38.58
2023-05-12T17:26:39.595Z,38.29
2023-05-12T17:29:07.299Z,38.57
2023-05-12T17:31:34.955Z,38.51
2023-05-12T17:34:01.868Z,38.24
2023-05-12T17:36:29.366Z,38.26
2023-05-12T17:38:56.630Z,38.61
2023-05-12T17:41:23.692Z,38.48
2023-05-12T17:43:50.615Z,38.23
2023-05-12T17:46:17.626Z,38.70
2023-05-12T17:48:44.574Z,38.65
2023-05-12T17:51:12.034Z,38.99
2023-05-12T17:53:39.952Z,38.38
2023-05-12T17:56:07.880Z,38.44
2023-05-12T17:58:34.615Z,38.69
2023-05-12T18:01:02.795Z,38.54
2023-05-12T18:03:30.305Z,38.52
2023-05-12T18:05:57.136Z,38.71
2023-05-12T18:08:23.934Z,38.55
2023-05-12T18:10:51.559Z,38.14
2023-05-12T18:13:18.358Z,38.23
2023-05-12T18:15:45.776Z,37.91
2023-05-12T18:18:14.490Z,38.22
2023-05-12T18:20:41.335Z,38.19
2023-05-12T18:23:09.938Z,38.05
2023-05-12T18:25:37.294Z,38.19
2023-05-12T18:28:06.826Z,38.57
2023-05-12T18:30:33.700Z,38.11
2023-05-12T18:33:00.673Z,38.06
2023-05-12T18:35:28.144Z,38.06
2023-05-12T18:37:56.728Z,38.00
2023-05-12T18:40:24.092Z,37.96
2023-05-12T18:42:51.470Z,37.87
2023-05-12T18:45:19.883Z,38.49
2023-05-12T18:47:47.602Z,38.33
2023-05-12T18:50:15.406Z,38.04
2023-05-12T18:52:43.393Z,38.40
2023-05-12T18:55:11.214Z,38.51
2023-05-12T18:57:40.611Z,38.59
2023-05-12T19:00:09.848Z,38.22
2023-05-12T19:02:37.643Z,38.68
2023-05-12T19:05:06.017Z,38.17
2023-05-12T19:07:32.824Z,38.38
2023-05-12T19:10:00.260Z,38.49
2023-05-12T19:12:27.318Z,38.40
2023-05-12T19:14:54.387Z,38.32
2023-05-12T19:17:22.357Z,38.14
2023-05-12T19:19:51.018Z,38.46
2023-05-12T19:22:18.174Z,37.49
2023-05-12T19:24:45.303Z,37.10
2023-05-12T19:27:12.464Z,37.28
2023-05-12T19:29:39.476Z,37.51
2023-05-12T19:32:07.054Z,38.09
2023-05-12T19:34:34.290Z,38.20
2023-05-12T19:37:01.084Z,37.73
2023-05-12T19:39:28.970Z,37.54
2023-05-12T19:41:55.876Z,37.63
2023-05-12T19:44:22.839Z,37.76
2023-05-12T19:46:51.228Z,37.98
2023-05-12T19:49:18.111Z,38.02
2023-05-12T19:51:45.843Z,38.27
2023-05-12T19:54:13.381Z,38.40
2023-05-12T19:56:40.489Z,38.24
2023-05-12T19:59:07.658Z,38.22
2023-05-12T20:01:36.849Z,38.24
2023-05-12T20:04:04.947Z,38.17
2023-05-12T20:06:32.310Z,38.54
2023-05-12T20:08:59.682Z,38.52
2023-05-12T20:11:29.036Z,37.95
2023-05-12T20:13:57.177Z,37.93
2023-05-12T20:16:25.193Z,38.17
2023-05-12T20:18:53.034Z,37.85
2023-05-12T20:21:21.797Z,37.86
2023-05-12T20:23:49.788Z,37.99
2023-05-12T20:26:23.884Z,37.66
2023-05-12T20:28:53.018Z,38.06
2023-05-12T20:31:22.184Z,38.00
2023-05-12T20:33:53.004Z,38.01
2023-05-12T20:36:31.573Z,38.00
2023-05-12T20:39:00.530Z,38.15
2023-05-12T20:41:30.146Z,37.96
2023-05-12T20:43:58.662Z,38.27
2023-05-12T20:46:26.432Z,38.15
2023-05-12T20:48:53.509Z,37.83
2023-05-12T20:51:21.967Z,38.20
2023-05-12T20:53:49.029Z,38.11
2023-05-12T20:56:15.857Z,37.91
2023-05-12T20:58:43.797Z,38.25
2023-05-12T21:01:11.612Z,38.02
2023-05-12T21:03:38.492Z,38.23
2023-05-12T21:06:05.606Z,38.11
2023-05-12T21:08:32.739Z,38.11
2023-05-12T21:11:00.164Z,37.97
2023-05-12T21:13:27.450Z,38.13
2023-05-12T21:15:54.255Z,38.60
2023-05-12T21:18:23.259Z,38.40
2023-05-12T21:20:50.119Z,38.20
2023-05-12T21:23:16.930Z,38.10
2023-05-12T21:25:44.746Z,38.39
2023-05-12T21:28:11.535Z,38.27
2023-05-12T21:30:38.349Z,38.06
2023-05-12T21:33:05.916Z,38.38
2023-05-12T21:35:32.765Z,38.06
2023-05-12T21:38:01.199Z,38.17
2023-05-12T21:40:30.097Z,38.38
2023-05-12T21:42:57.735Z,38.02
2023-05-12T21:45:25.096Z,38.26
2023-05-12T21:47:52.321Z,37.92
2023-05-12T21:50:22.024Z,38.15
2023-05-12T21:52:50.024Z,38.27
2023-05-12T21:55:18.059Z,38.15
2023-05-12T21:57:45.934Z,38.23
2023-05-12T22:00:15.126Z,38.48
2023-05-12T22:02:42.187Z,38.19
2023-05-12T22:05:09.786Z,38.23
2023-05-12T22:07:36.710Z,38.18
2023-05-12T22:10:04.706Z,38.26
2023-05-12T22:12:31.534Z,38.40
2023-05-12T22:14:59.178Z,38.20
2023-05-12T22:17:26.504Z,38.45
2023-05-12T22:19:53.881Z,38.19
2023-05-12T22:22:22.544Z,38.20
2023-05-12T22:24:49.716Z,38.13
2023-05-12T22:27:22.024Z,38.18
2023-05-12T22:29:49.271Z,38.32
2023-05-12T22:32:16.640Z,38.47
2023-05-12T22:34:43.538Z,38.54
2023-05-12T22:37:10.364Z,38.66
2023-05-12T22:39:37.289Z,38.58
2023-05-12T22:42:06.155Z,38.60
2023-05-12T22:44:33.327Z,38.27
2023-05-12T22:47:00.455Z,38.39
2023-05-12T22:49:27.444Z,38.67
2023-05-12T22:51:54.381Z,38.37
2023-05-12T22:54:21.189Z,38.53
2023-05-12T22:56:48.031Z,38.35
2023-05-12T22:59:15.380Z,38.58
2023-05-12T23:01:42.346Z,38.38
2023-05-12T23:04:09.458Z,38.68
2023-05-12T23:06:36.411Z,38.75
2023-05-12T23:09:03.765Z,38.41
2023-05-12T23:11:30.595Z,38.57
2023-05-12T23:13:57.881Z,38.84
2023-05-12T23:16:25.613Z,38.54
2023-05-12T23:18:52.506Z,38.86
2023-05-12T23:21:19.561Z,38.77
2023-05-12T23:23:46.480Z,38.48
2023-05-12T23:26:13.506Z,38.30
2023-05-12T23:28:40.542Z,38.33
2023-05-12T23:31:07.396Z,38.52
2023-05-12T23:33:34.479Z,38.99
2023-05-12T23:36:03.168Z,38.50
2023-05-12T23:38:30.368Z,38.37
2023-05-12T23:40:57.184Z,38.35
2023-05-12T23:43:24.231Z,38.68
2023-05-12T23:45:51.199Z,38.49
2023-05-12T23:48:20.091Z,38.84
2023-05-12T23:50:47.318Z,38.63
2023-05-12T23:53:14.126Z,38.67
2023-05-12T23:55:41.149Z,38.79
2023-05-12T23:58:10.724Z,38.57
